Mc Condy, Mississippi
Current Conditions -  °F | °C
As of 3:55 AM on Friday 28 Nov 2014 (Local Time) from KM40 Reporting Station
Haze Haze  
Wind Chill: 27°   Ceiling: Unl
Heat Index: 27°   Visibility: 5mi
Dew Point: 16°   Wind: 0mph
Humidity: 64%   Direction: NA
Pressure: 30.47"   Gusts: NA
Location:  33.9068°N, 88.9554°W
Report Text: KM40 280955Z AUTO 00000KT 5SM HZ CLR M03/M09 A3047 RMK AO2
Loading
Personal Weather Stations






























Interactive Weather Map New forecast layout! Learn more

10-Day Weather Forecast

Advertisements
Track Severe Weather on mobile